sensor_id;sensor_type;location;lat;lon;timestamp;P1;durP1;ratioP1;P2;durP2;ratioP2
17340;SDS011;8788;49.930;8.660;2024-01-15T00:00:01;25.83;;;14.35;;
17340;SDS011;8788;49.930;8.660;2024-01-15T00:02:35;32.42;;;13.68;;
17340;SDS011;8788;49.930;8.660;2024-01-15T00:05:03;23.77;;;13.82;;
17340;SDS011;8788;49.930;8.660;2024-01-15T00:07:30;31.98;;;14.68;;
17340;SDS011;8788;49.930;8.660;2024-01-15T00:09:57;33.28;;;15.70;;
17340;SDS011;8788;49.930;8.660;2024-01-15T00:12:24;28.08;;;13.13;;
17340;SDS011;8788;49.930;8.660;2024-01-15T00:14:53;30.65;;;14.40;;
17340;SDS011;8788;49.930;8.660;2024-01-15T00:17:20;31.45;;;12.73;;
17340;SDS011;8788;49.930;8.660;2024-01-15T00:19:47;26.83;;;14.07;;
17340;SDS011;8788;49.930;8.660;2024-01-15T00:22:14;25.17;;;11.13;;
17340;SDS011;8788;49.930;8.660;2024-01-15T00:24:41;26.30;;;13.15;;
17340;SDS011;8788;49.930;8.660;2024-01-15T00:27:08;26.40;;;12.07;;
17340;SDS011;8788;49.930;8.660;2024-01-15T00:29:35;27.20;;;14.23;;
17340;SDS011;8788;49.930;8.660;2024-01-15T00:32:05;25.80;;;12.63;;
17340;SDS011;8788;49.930;8.660;2024-01-15T00:34:32;29.08;;;12.23;;
17340;SDS011;8788;49.930;8.660;2024-01-15T00:36:59;23.02;;;12.32;;
17340;SDS011;8788;49.930;8.660;2024-01-15T00:39:26;28.25;;;13.40;;
17340;SDS011;8788;49.930;8.660;2024-01-15T00:41:53;21.88;;;11.55;;
17340;SDS011;8788;49.930;8.660;2024-01-15T00:44:20;28.40;;;13.15;;
17340;SDS011;8788;49.930;8.660;2024-01-15T00:46:47;26.98;;;12.40;;
17340;SDS011;8788;49.930;8.660;2024-01-15T00:49:16;27.40;;;13.13;;
17340;SDS011;8788;49.930;8.660;2024-01-15T00:51:43;22.13;;;11.50;;
17340;SDS011;8788;49.930;8.660;2024-01-15T00:54:10;22.55;;;11.30;;
17340;SDS011;8788;49.930;8.660;2024-01-15T00:56:37;32.85;;;14.23;;
17340;SDS011;8788;49.930;8.660;2024-01-15T00:59:04;24.83;;;11.70;;
17340;SDS011;8788;49.930;8.660;2024-01-15T01:01:31;30.65;;;13.18;;
17340;SDS011;8788;49.930;8.660;2024-01-15T01:03:58;27.67;;;13.23;;
17340;SDS011;8788;49.930;8.660;2024-01-15T01:06:27;30.92;;;14.55;;
17340;SDS011;8788;49.930;8.660;2024-01-15T01:08:54;26.70;;;13.10;;
17340;SDS011;8788;49.930;8.660;2024-01-15T01:11:21;32.63;;;14.02;;
17340;SDS011;8788;49.930;8.660;2024-01-15T01:13:47;27.33;;;13.18;;
17340;SDS011;8788;49.930;8.660;2024-01-15T01:16:14;24.27;;;12.13;;
17340;SDS011;8788;49.930;8.660;2024-01-15T01:18:41;29.13;;;12.30;;
17340;SDS011;8788;49.930;8.660;2024-01-15T01:21:08;20.92;;;12.32;;
17340;SDS011;8788;49.930;8.660;2024-01-15T01:23:36;29.20;;;12.75;;
17340;SDS011;8788;49.930;8.660;2024-01-15T01:26:03;24.65;;;12.50;;
17340;SDS011;8788;49.930;8.660;2024-01-15T01:28:30;24.27;;;13.55;;
17340;SDS011;8788;49.930;8.660;2024-01-15T01:30:57;27.85;;;12.52;;
17340;SDS011;8788;49.930;8.660;2024-01-15T01:33:24;29.75;;;12.90;;
17340;SDS011;8788;49.930;8.660;2024-01-15T01:35:51;26.20;;;12.65;;
17340;SDS011;8788;49.930;8.660;2024-01-15T01:38:18;24.83;;;12.27;;
17340;SDS011;8788;49.930;8.660;2024-01-15T01:40:47;27.08;;;11.63;;
17340;SDS011;8788;49.930;8.660;2024-01-15T01:43:14;26.38;;;13.25;;
17340;SDS011;8788;49.930;8.660;2024-01-15T01:45:41;28.15;;;12.90;;
17340;SDS011;8788;49.930;8.660;2024-01-15T01:48:08;25.38;;;11.85;;
17340;SDS011;8788;49.930;8.660;2024-01-15T01:50:35;24.10;;;12.02;;
17340;SDS011;8788;49.930;8.660;2024-01-15T01:53:03;25.85;;;12.95;;
17340;SDS011;8788;49.930;8.660;2024-01-15T01:55:30;24.58;;;12.18;;
17340;SDS011;8788;49.930;8.660;2024-01-15T01:58:01;25.55;;;11.88;;
17340;SDS011;8788;49.930;8.660;2024-01-15T02:00:30;29.40;;;12.80;;
17340;SDS011;8788;49.930;8.660;2024-01-15T02:02:58;27.08;;;12.15;;
17340;SDS011;8788;49.930;8.660;2024-01-15T02:05:25;26.85;;;13.15;;
17340;SDS011;8788;49.930;8.660;2024-01-15T02:07:53;25.17;;;12.70;;
17340;SDS011;8788;49.930;8.660;2024-01-15T02:10:21;24.90;;;12.38;;
17340;SDS011;8788;49.930;8.660;2024-01-15T02:12:48;29.15;;;13.00;;
17340;SDS011;8788;49.930;8.660;2024-01-15T02:15:16;27.10;;;12.55;;
17340;SDS011;8788;49.930;8.660;2024-01-15T02:17:56;27.52;;;12.48;;
17340;SDS011;8788;49.930;8.660;2024-01-15T02:20:24;28.80;;;12.50;;
17340;SDS011;8788;49.930;8.660;2024-01-15T02:22:51;30.02;;;13.68;;
17340;SDS011;8788;49.930;8.660;2024-01-15T02:25:20;28.38;;;13.07;;
17340;SDS011;8788;49.930;8.660;2024-01-15T02:27:48;27.13;;;11.90;;
17340;SDS011;8788;49.930;8.660;2024-01-15T02:30:15;29.35;;;13.27;;
17340;SDS011;8788;49.930;8.660;2024-01-15T02:32:43;25.02;;;11.88;;
17340;SDS011;8788;49.930;8.660;2024-01-15T02:35:10;26.55;;;12.55;;
17340;SDS011;8788;49.930;8.660;2024-01-15T02:37:37;33.67;;;13.43;;
17340;SDS011;8788;49.930;8.660;2024-01-15T02:40:05;31.30;;;13.60;;
17340;SDS011;8788;49.930;8.660;2024-01-15T02:42:46;28.48;;;12.98;;
17340;SDS011;8788;49.930;8.660;2024-01-15T02:45:14;30.33;;;14.32;;
17340;SDS011;8788;49.930;8.660;2024-01-15T02:47:41;30.55;;;14.05;;
17340;SDS011;8788;49.930;8.660;2024-01-15T02:50:08;31.23;;;13.90;;
17340;SDS011;8788;49.930;8.660;2024-01-15T02:52:35;32.00;;;13.23;;
17340;SDS011;8788;49.930;8.660;2024-01-15T02:55:02;27.25;;;13.25;;
17340;SDS011;8788;49.930;8.660;2024-01-15T02:57:30;26.33;;;11.70;;
17340;SDS011;8788;49.930;8.660;2024-01-15T02:59:58;27.27;;;12.73;;
17340;SDS011;8788;49.930;8.660;2024-01-15T03:02:25;29.33;;;11.98;;
17340;SDS011;8788;49.930;8.660;2024-01-15T03:04:52;25.02;;;12.00;;
17340;SDS011;8788;49.930;8.660;2024-01-15T03:07:19;27.48;;;13.25;;
17340;SDS011;8788;49.930;8.660;2024-01-15T03:09:46;24.17;;;10.90;;
17340;SDS011;8788;49.930;8.660;2024-01-15T03:12:13;29.00;;;13.32;;
17340;SDS011;8788;49.930;8.660;2024-01-15T03:14:40;25.80;;;12.48;;
17340;SDS011;8788;49.930;8.660;2024-01-15T03:17:09;26.77;;;13.10;;
17340;SDS011;8788;49.930;8.660;2024-01-15T03:19:37;30.10;;;12.35;;
17340;SDS011;8788;49.930;8.660;2024-01-15T03:22:04;27.40;;;11.77;;
17340;SDS011;8788;49.930;8.660;2024-01-15T03:24:33;29.73;;;11.98;;
17340;SDS011;8788;49.930;8.660;2024-01-15T03:27:01;26.25;;;12.85;;
17340;SDS011;8788;49.930;8.660;2024-01-15T03:29:28;28.33;;;11.95;;
17340;SDS011;8788;49.930;8.660;2024-01-15T03:31:55;21.65;;;11.30;;
17340;SDS011;8788;49.930;8.660;2024-01-15T03:34:23;25.27;;;12.52;;
17340;SDS011;8788;49.930;8.660;2024-01-15T03:36:50;24.50;;;11.02;;
17340;SDS011;8788;49.930;8.660;2024-01-15T03:39:17;24.00;;;12.05;;
17340;SDS011;8788;49.930;8.660;2024-01-15T03:41:44;31.23;;;13.82;;
17340;SDS011;8788;49.930;8.660;2024-01-15T03:44:11;24.10;;;13.30;;
17340;SDS011;8788;49.930;8.660;2024-01-15T03:46:39;25.17;;;11.60;;
17340;SDS011;8788;49.930;8.660;2024-01-15T03:49:06;32.13;;;12.35;;
17340;SDS011;8788;49.930;8.660;2024-01-15T03:51:34;25.70;;;12.40;;
17340;SDS011;8788;49.930;8.660;2024-01-15T03:54:01;24.67;;;12.00;;
17340;SDS011;8788;49.930;8.660;2024-01-15T03:56:28;24.15;;;12.25;;
17340;SDS011;8788;49.930;8.660;2024-01-15T03:58:55;26.80;;;11.32;;
17340;SDS011;8788;49.930;8.660;2024-01-15T04:01:22;31.15;;;12.95;;
17340;SDS011;8788;49.930;8.660;2024-01-15T04:03:49;30.15;;;12.45;;
17340;SDS011;8788;49.930;8.660;2024-01-15T04:06:16;24.35;;;10.98;;
17340;SDS011;8788;49.930;8.660;2024-01-15T04:08:45;25.42;;;12.13;;
17340;SDS011;8788;49.930;8.660;2024-01-15T04:11:12;22.83;;;12.07;;
17340;SDS011;8788;49.930;8.660;2024-01-15T04:13:39;23.35;;;11.00;;
17340;SDS011;8788;49.930;8.660;2024-01-15T04:16:06;23.10;;;11.63;;
17340;SDS011;8788;49.930;8.660;2024-01-15T04:18:33;22.80;;;10.65;;
17340;SDS011;8788;49.930;8.660;2024-01-15T04:21:00;24.90;;;10.75;;
17340;SDS011;8788;49.930;8.660;2024-01-15T04:23:29;24.02;;;11.05;;
17340;SDS011;8788;49.930;8.660;2024-01-15T04:25:58;21.50;;;10.57;;
17340;SDS011;8788;49.930;8.660;2024-01-15T04:28:25;22.27;;;11.05;;
17340;SDS011;8788;49.930;8.660;2024-01-15T04:30:52;27.17;;;12.82;;
17340;SDS011;8788;49.930;8.660;2024-01-15T04:33:19;19.17;;;9.90;;
17340;SDS011;8788;49.930;8.660;2024-01-15T04:35:46;18.73;;;10.68;;
17340;SDS011;8788;49.930;8.660;2024-01-15T04:38:13;20.42;;;10.18;;
17340;SDS011;8788;49.930;8.660;2024-01-15T04:40:40;20.95;;;10.52;;
17340;SDS011;8788;49.930;8.660;2024-01-15T04:43:09;22.70;;;11.20;;
17340;SDS011;8788;49.930;8.660;2024-01-15T04:45:36;26.10;;;11.20;;
17340;SDS011;8788;49.930;8.660;2024-01-15T04:48:03;26.20;;;11.98;;
17340;SDS011;8788;49.930;8.660;2024-01-15T04:50:30;19.98;;;11.27;;
17340;SDS011;8788;49.930;8.660;2024-01-15T04:52:57;23.63;;;11.23;;
17340;SDS011;8788;49.930;8.660;2024-01-15T04:55:24;17.95;;;9.88;;
17340;SDS011;8788;49.930;8.660;2024-01-15T04:57:51;23.58;;;11.43;;
17340;SDS011;8788;49.930;8.660;2024-01-15T05:00:20;25.95;;;11.48;;
17340;SDS011;8788;49.930;8.660;2024-01-15T05:02:47;23.85;;;11.05;;
17340;SDS011;8788;49.930;8.660;2024-01-15T05:05:14;24.05;;;11.38;;
17340;SDS011;8788;49.930;8.660;2024-01-15T05:07:42;25.58;;;10.45;;
17340;SDS011;8788;49.930;8.660;2024-01-15T05:10:09;22.40;;;11.63;;
17340;SDS011;8788;49.930;8.660;2024-01-15T05:12:36;21.90;;;11.20;;
17340;SDS011;8788;49.930;8.660;2024-01-15T05:15:03;22.85;;;11.35;;
17340;SDS011;8788;49.930;8.660;2024-01-15T05:17:32;25.23;;;11.07;;
17340;SDS011;8788;49.930;8.660;2024-01-15T05:19:59;22.20;;;10.57;;
17340;SDS011;8788;49.930;8.660;2024-01-15T05:22:26;26.65;;;11.32;;
17340;SDS011;8788;49.930;8.660;2024-01-15T05:24:53;18.25;;;10.05;;
17340;SDS011;8788;49.930;8.660;2024-01-15T05:27:20;21.05;;;10.98;;
17340;SDS011;8788;49.930;8.660;2024-01-15T05:29:47;26.42;;;10.75;;
17340;SDS011;8788;49.930;8.660;2024-01-15T05:32:14;24.08;;;10.20;;
17340;SDS011;8788;49.930;8.660;2024-01-15T05:34:43;23.05;;;10.40;;
17340;SDS011;8788;49.930;8.660;2024-01-15T05:37:10;17.20;;;9.25;;
17340;SDS011;8788;49.930;8.660;2024-01-15T05:39:37;17.58;;;9.93;;
17340;SDS011;8788;49.930;8.660;2024-01-15T05:42:04;23.90;;;11.43;;
17340;SDS011;8788;49.930;8.660;2024-01-15T05:44:32;23.27;;;10.43;;
17340;SDS011;8788;49.930;8.660;2024-01-15T05:46:59;24.48;;;11.10;;
17340;SDS011;8788;49.930;8.660;2024-01-15T05:49:26;23.95;;;10.68;;
17340;SDS011;8788;49.930;8.660;2024-01-15T05:51:54;22.02;;;9.50;;
17340;SDS011;8788;49.930;8.660;2024-01-15T05:54:21;18.83;;;9.95;;
17340;SDS011;8788;49.930;8.660;2024-01-15T05:56:48;23.70;;;11.50;;
17340;SDS011;8788;49.930;8.660;2024-01-15T05:59:15;21.75;;;11.70;;
17340;SDS011;8788;49.930;8.660;2024-01-15T06:01:42;30.27;;;11.82;;
17340;SDS011;8788;49.930;8.660;2024-01-15T06:04:09;25.63;;;12.13;;
17340;SDS011;8788;49.930;8.660;2024-01-15T06:06:36;25.90;;;11.75;;
17340;SDS011;8788;49.930;8.660;2024-01-15T06:09:05;26.27;;;11.80;;
17340;SDS011;8788;49.930;8.660;2024-01-15T06:11:32;24.83;;;11.95;;
17340;SDS011;8788;49.930;8.660;2024-01-15T06:13:59;22.33;;;10.60;;
17340;SDS011;8788;49.930;8.660;2024-01-15T06:16:27;24.98;;;12.65;;
17340;SDS011;8788;49.930;8.660;2024-01-15T06:18:55;26.40;;;12.23;;
17340;SDS011;8788;49.930;8.660;2024-01-15T06:21:22;19.38;;;11.48;;
17340;SDS011;8788;49.930;8.660;2024-01-15T06:23:49;27.15;;;12.43;;
17340;SDS011;8788;49.930;8.660;2024-01-15T06:26:17;21.20;;;12.07;;
17340;SDS011;8788;49.930;8.660;2024-01-15T06:28:44;19.75;;;11.13;;
17340;SDS011;8788;49.930;8.660;2024-01-15T06:31:11;24.23;;;11.35;;
17340;SDS011;8788;49.930;8.660;2024-01-15T06:33:38;27.00;;;13.15;;
17340;SDS011;8788;49.930;8.660;2024-01-15T06:36:06;23.40;;;11.32;;
17340;SDS011;8788;49.930;8.660;2024-01-15T06:38:33;22.05;;;10.27;;
17340;SDS011;8788;49.930;8.660;2024-01-15T06:41:00;25.05;;;11.65;;
17340;SDS011;8788;49.930;8.660;2024-01-15T06:43:29;24.00;;;12.57;;
17340;SDS011;8788;49.930;8.660;2024-01-15T06:45:56;22.67;;;11.32;;
17340;SDS011;8788;49.930;8.660;2024-01-15T06:48:23;25.55;;;12.05;;
17340;SDS011;8788;49.930;8.660;2024-01-15T06:50:50;23.75;;;12.02;;
17340;SDS011;8788;49.930;8.660;2024-01-15T06:53:17;25.98;;;11.93;;
17340;SDS011;8788;49.930;8.660;2024-01-15T06:55:44;22.30;;;10.82;;
17340;SDS011;8788;49.930;8.660;2024-01-15T06:58:12;20.80;;;9.85;;
17340;SDS011;8788;49.930;8.660;2024-01-15T07:00:40;22.60;;;11.73;;
17340;SDS011;8788;49.930;8.660;2024-01-15T07:03:07;22.95;;;9.88;;
17340;SDS011;8788;49.930;8.660;2024-01-15T07:05:34;21.55;;;11.02;;
17340;SDS011;8788;49.930;8.660;2024-01-15T07:08:02;24.05;;;11.13;;
17340;SDS011;8788;49.930;8.660;2024-01-15T07:10:30;21.90;;;10.68;;
17340;SDS011;8788;49.930;8.660;2024-01-15T07:12:57;19.20;;;10.68;;
17340;SDS011;8788;49.930;8.660;2024-01-15T07:15:24;20.38;;;10.80;;
17340;SDS011;8788;49.930;8.660;2024-01-15T07:17:52;20.92;;;11.45;;
17340;SDS011;8788;49.930;8.660;2024-01-15T07:20:19;24.90;;;10.65;;
17340;SDS011;8788;49.930;8.660;2024-01-15T07:22:46;17.10;;;9.80;;
17340;SDS011;8788;49.930;8.660;2024-01-15T07:25:13;29.23;;;12.27;;
17340;SDS011;8788;49.930;8.660;2024-01-15T07:27:42;18.95;;;10.57;;
17340;SDS011;8788;49.930;8.660;2024-01-15T07:30:10;18.80;;;10.30;;
17340;SDS011;8788;49.930;8.660;2024-01-15T07:32:38;22.13;;;10.70;;
17340;SDS011;8788;49.930;8.660;2024-01-15T07:35:07;19.08;;;10.77;;
17340;SDS011;8788;49.930;8.660;2024-01-15T07:37:35;21.35;;;10.95;;
17340;SDS011;8788;49.930;8.660;2024-01-15T07:40:02;21.05;;;10.18;;
17340;SDS011;8788;49.930;8.660;2024-01-15T07:42:31;22.38;;;9.98;;
17340;SDS011;8788;49.930;8.660;2024-01-15T07:44:58;24.45;;;11.50;;
17340;SDS011;8788;49.930;8.660;2024-01-15T07:47:26;20.95;;;11.25;;
17340;SDS011;8788;49.930;8.660;2024-01-15T07:49:53;19.38;;;10.43;;
17340;SDS011;8788;49.930;8.660;2024-01-15T07:52:22;24.42;;;11.38;;
17340;SDS011;8788;49.930;8.660;2024-01-15T07:54:49;20.25;;;11.00;;
17340;SDS011;8788;49.930;8.660;2024-01-15T07:57:16;23.73;;;11.85;;
17340;SDS011;8788;49.930;8.660;2024-01-15T07:59:43;18.20;;;10.68;;
17340;SDS011;8788;49.930;8.660;2024-01-15T08:02:10;18.90;;;9.75;;
17340;SDS011;8788;49.930;8.660;2024-01-15T08:04:37;23.50;;;11.02;;
17340;SDS011;8788;49.930;8.660;2024-01-15T08:07:04;22.75;;;10.70;;
17340;SDS011;8788;49.930;8.660;2024-01-15T08:09:33;22.52;;;10.63;;
17340;SDS011;8788;49.930;8.660;2024-01-15T08:12:00;23.17;;;11.75;;
17340;SDS011;8788;49.930;8.660;2024-01-15T08:14:28;22.02;;;11.35;;
17340;SDS011;8788;49.930;8.660;2024-01-15T08:16:55;26.83;;;11.60;;
17340;SDS011;8788;49.930;8.660;2024-01-15T08:19:22;24.00;;;10.45;;
17340;SDS011;8788;49.930;8.660;2024-01-15T08:21:49;21.38;;;11.98;;
17340;SDS011;8788;49.930;8.660;2024-01-15T08:24:16;24.05;;;10.25;;
17340;SDS011;8788;49.930;8.660;2024-01-15T08:26:45;20.38;;;11.18;;
17340;SDS011;8788;49.930;8.660;2024-01-15T08:29:12;25.40;;;11.77;;
17340;SDS011;8788;49.930;8.660;2024-01-15T08:31:39;17.90;;;10.50;;
17340;SDS011;8788;49.930;8.660;2024-01-15T08:34:06;20.20;;;10.57;;
17340;SDS011;8788;49.930;8.660;2024-01-15T08:36:33;22.65;;;10.63;;
17340;SDS011;8788;49.930;8.660;2024-01-15T08:39:01;25.38;;;11.55;;
17340;SDS011;8788;49.930;8.660;2024-01-15T08:41:30;23.48;;;11.48;;
17340;SDS011;8788;49.930;8.660;2024-01-15T08:43:59;21.92;;;11.15;;
17340;SDS011;8788;49.930;8.660;2024-01-15T08:46:26;21.95;;;12.23;;
17340;SDS011;8788;49.930;8.660;2024-01-15T08:48:53;24.02;;;11.43;;
17340;SDS011;8788;49.930;8.660;2024-01-15T08:51:20;20.27;;;10.77;;
17340;SDS011;8788;49.930;8.660;2024-01-15T08:53:47;20.40;;;10.88;;
17340;SDS011;8788;49.930;8.660;2024-01-15T08:56:14;21.55;;;10.68;;
17340;SDS011;8788;49.930;8.660;2024-01-15T08:58:41;22.92;;;11.23;;
17340;SDS011;8788;49.930;8.660;2024-01-15T09:01:10;19.40;;;11.52;;
17340;SDS011;8788;49.930;8.660;2024-01-15T09:03:37;22.73;;;12.98;;
17340;SDS011;8788;49.930;8.660;2024-01-15T09:06:04;23.52;;;11.65;;
17340;SDS011;8788;49.930;8.660;2024-01-15T09:08:31;20.48;;;10.52;;
17340;SDS011;8788;49.930;8.660;2024-01-15T09:10:58;20.25;;;10.40;;
17340;SDS011;8788;49.930;8.660;2024-01-15T09:13:28;20.80;;;11.00;;
17340;SDS011;8788;49.930;8.660;2024-01-15T09:15:55;22.88;;;11.63;;
17340;SDS011;8788;49.930;8.660;2024-01-15T09:18:23;21.35;;;11.75;;
17340;SDS011;8788;49.930;8.660;2024-01-15T09:20:50;21.02;;;11.93;;
17340;SDS011;8788;49.930;8.660;2024-01-15T09:23:17;19.95;;;12.40;;
17340;SDS011;8788;49.930;8.660;2024-01-15T09:25:44;23.17;;;11.80;;
17340;SDS011;8788;49.930;8.660;2024-01-15T09:28:12;22.45;;;10.35;;
17340;SDS011;8788;49.930;8.660;2024-01-15T09:30:39;18.40;;;10.95;;
17340;SDS011;8788;49.930;8.660;2024-01-15T09:33:06;20.52;;;12.35;;
17340;SDS011;8788;49.930;8.660;2024-01-15T09:35:35;20.02;;;10.57;;
17340;SDS011;8788;49.930;8.660;2024-01-15T09:38:02;22.67;;;12.43;;
17340;SDS011;8788;49.930;8.660;2024-01-15T09:40:31;16.77;;;10.65;;
17340;SDS011;8788;49.930;8.660;2024-01-15T09:42:59;18.92;;;10.70;;
17340;SDS011;8788;49.930;8.660;2024-01-15T09:45:28;23.50;;;10.93;;
17340;SDS011;8788;49.930;8.660;2024-01-15T09:47:55;22.55;;;11.60;;
17340;SDS011;8788;49.930;8.660;2024-01-15T09:50:23;26.73;;;11.45;;
17340;SDS011;8788;49.930;8.660;2024-01-15T09:52:51;19.52;;;11.55;;
17340;SDS011;8788;49.930;8.660;2024-01-15T09:55:19;24.90;;;11.55;;
17340;SDS011;8788;49.930;8.660;2024-01-15T09:57:46;18.20;;;10.65;;
17340;SDS011;8788;49.930;8.660;2024-01-15T10:00:14;18.35;;;10.45;;
17340;SDS011;8788;49.930;8.660;2024-01-15T10:02:44;18.30;;;11.95;;
17340;SDS011;8788;49.930;8.660;2024-01-15T10:05:11;17.65;;;10.13;;
17340;SDS011;8788;49.930;8.660;2024-01-15T10:07:39;18.42;;;10.50;;
17340;SDS011;8788;49.930;8.660;2024-01-15T10:10:08;20.30;;;10.63;;
17340;SDS011;8788;49.930;8.660;2024-01-15T10:12:37;22.25;;;10.43;;
17340;SDS011;8788;49.930;8.660;2024-01-15T10:15:05;18.52;;;11.65;;
17340;SDS011;8788;49.930;8.660;2024-01-15T10:17:36;19.17;;;11.10;;
17340;SDS011;8788;49.930;8.660;2024-01-15T10:20:07;21.33;;;11.55;;
17340;SDS011;8788;49.930;8.660;2024-01-15T10:22:35;16.95;;;10.82;;
17340;SDS011;8788;49.930;8.660;2024-01-15T10:25:05;18.92;;;11.15;;
17340;SDS011;8788;49.930;8.660;2024-01-15T10:27:34;15.02;;;10.45;;
17340;SDS011;8788;49.930;8.660;2024-01-15T10:30:01;16.75;;;9.88;;
17340;SDS011;8788;49.930;8.660;2024-01-15T10:32:28;19.13;;;10.98;;
17340;SDS011;8788;49.930;8.660;2024-01-15T10:34:55;19.52;;;10.35;;
17340;SDS011;8788;49.930;8.660;2024-01-15T10:37:23;21.23;;;11.55;;
17340;SDS011;8788;49.930;8.660;2024-01-15T10:39:50;16.05;;;9.82;;
17340;SDS011;8788;49.930;8.660;2024-01-15T10:42:18;17.60;;;10.90;;
17340;SDS011;8788;49.930;8.660;2024-01-15T10:44:47;16.02;;;9.98;;
17340;SDS011;8788;49.930;8.660;2024-01-15T10:47:14;13.93;;;9.77;;
17340;SDS011;8788;49.930;8.660;2024-01-15T10:49:41;14.20;;;9.25;;
17340;SDS011;8788;49.930;8.660;2024-01-15T10:52:09;15.57;;;9.68;;
17340;SDS011;8788;49.930;8.660;2024-01-15T10:54:36;15.77;;;9.68;;
17340;SDS011;8788;49.930;8.660;2024-01-15T10:57:05;16.23;;;9.88;;
17340;SDS011;8788;49.930;8.660;2024-01-15T10:59:33;16.90;;;10.18;;
17340;SDS011;8788;49.930;8.660;2024-01-15T11:02:02;22.02;;;10.77;;
17340;SDS011;8788;49.930;8.660;2024-01-15T11:04:31;16.20;;;9.90;;
17340;SDS011;8788;49.930;8.660;2024-01-15T11:06:58;19.08;;;10.48;;
17340;SDS011;8788;49.930;8.660;2024-01-15T11:09:28;17.60;;;10.20;;
17340;SDS011;8788;49.930;8.660;2024-01-15T11:12:06;16.70;;;10.82;;
17340;SDS011;8788;49.930;8.660;2024-01-15T11:14:34;20.08;;;10.18;;
17340;SDS011;8788;49.930;8.660;2024-01-15T11:17:02;20.30;;;11.10;;
17340;SDS011;8788;49.930;8.660;2024-01-15T11:19:36;17.08;;;9.90;;
17340;SDS011;8788;49.930;8.660;2024-01-15T11:22:06;14.88;;;9.55;;
17340;SDS011;8788;49.930;8.660;2024-01-15T11:24:35;13.77;;;8.65;;
17340;SDS011;8788;49.930;8.660;2024-01-15T11:27:04;11.48;;;7.75;;
17340;SDS011;8788;49.930;8.660;2024-01-15T11:29:32;12.57;;;7.95;;
17340;SDS011;8788;49.930;8.660;2024-01-15T11:32:02;12.77;;;8.13;;
17340;SDS011;8788;49.930;8.660;2024-01-15T11:37:24;10.70;;;7.60;;
17340;SDS011;8788;49.930;8.660;2024-01-15T11:39:52;11.93;;;7.35;;
17340;SDS011;8788;49.930;8.660;2024-01-15T11:42:20;12.45;;;7.60;;
17340;SDS011;8788;49.930;8.660;2024-01-15T11:44:48;11.90;;;7.40;;
17340;SDS011;8788;49.930;8.660;2024-01-15T11:47:20;12.15;;;7.82;;
17340;SDS011;8788;49.930;8.660;2024-01-15T11:50:11;9.32;;;6.10;;
17340;SDS011;8788;49.930;8.660;2024-01-15T11:52:38;11.55;;;7.22;;
17340;SDS011;8788;49.930;8.660;2024-01-15T11:55:10;10.77;;;7.15;;
17340;SDS011;8788;49.930;8.660;2024-01-15T11:57:44;9.52;;;6.50;;
17340;SDS011;8788;49.930;8.660;2024-01-15T12:00:13;11.02;;;7.35;;
17340;SDS011;8788;49.930;8.660;2024-01-15T12:02:43;9.57;;;6.38;;
17340;SDS011;8788;49.930;8.660;2024-01-15T12:05:11;10.25;;;6.47;;
17340;SDS011;8788;49.930;8.660;2024-01-15T12:07:39;10.52;;;5.95;;
17340;SDS011;8788;49.930;8.660;2024-01-15T12:10:10;8.18;;;6.28;;
17340;SDS011;8788;49.930;8.660;2024-01-15T12:12:39;9.68;;;5.95;;
17340;SDS011;8788;49.930;8.660;2024-01-15T12:15:14;11.25;;;7.03;;
17340;SDS011;8788;49.930;8.660;2024-01-15T12:17:42;10.90;;;6.70;;
17340;SDS011;8788;49.930;8.660;2024-01-15T12:20:10;11.18;;;7.05;;
17340;SDS011;8788;49.930;8.660;2024-01-15T12:22:37;8.07;;;5.63;;
17340;SDS011;8788;49.930;8.660;2024-01-15T12:25:05;8.07;;;6.47;;
17340;SDS011;8788;49.930;8.660;2024-01-15T12:27:33;9.70;;;6.93;;
17340;SDS011;8788;49.930;8.660;2024-01-15T12:30:00;10.23;;;6.55;;
17340;SDS011;8788;49.930;8.660;2024-01-15T12:32:27;9.93;;;6.70;;
17340;SDS011;8788;49.930;8.660;2024-01-15T12:34:57;9.18;;;6.22;;
17340;SDS011;8788;49.930;8.660;2024-01-15T12:37:24;10.75;;;6.18;;
17340;SDS011;8788;49.930;8.660;2024-01-15T12:39:51;10.38;;;6.60;;
17340;SDS011;8788;49.930;8.660;2024-01-15T12:42:20;9.18;;;5.50;;
17340;SDS011;8788;49.930;8.660;2024-01-15T12:44:48;11.40;;;6.07;;
17340;SDS011;8788;49.930;8.660;2024-01-15T12:47:15;9.88;;;5.65;;
17340;SDS011;8788;49.930;8.660;2024-01-15T12:49:46;8.68;;;6.05;;
17340;SDS011;8788;49.930;8.660;2024-01-15T12:52:18;9.15;;;5.78;;
17340;SDS011;8788;49.930;8.660;2024-01-15T12:54:45;9.18;;;6.30;;
17340;SDS011;8788;49.930;8.660;2024-01-15T12:57:12;10.70;;;6.50;;
17340;SDS011;8788;49.930;8.660;2024-01-15T12:59:39;8.10;;;6.50;;
17340;SDS011;8788;49.930;8.660;2024-01-15T13:02:06;9.43;;;6.50;;
17340;SDS011;8788;49.930;8.660;2024-01-15T13:04:33;10.50;;;6.68;;
17340;SDS011;8788;49.930;8.660;2024-01-15T13:07:00;8.27;;;5.95;;
17340;SDS011;8788;49.930;8.660;2024-01-15T13:09:29;11.77;;;6.25;;
17340;SDS011;8788;49.930;8.660;2024-01-15T13:11:56;8.70;;;5.50;;
17340;SDS011;8788;49.930;8.660;2024-01-15T13:14:24;12.65;;;7.05;;
17340;SDS011;8788;49.930;8.660;2024-01-15T13:16:51;8.63;;;6.93;;
17340;SDS011;8788;49.930;8.660;2024-01-15T13:19:18;8.95;;;6.18;;
17340;SDS011;8788;49.930;8.660;2024-01-15T13:21:47;10.82;;;6.30;;
17340;SDS011;8788;49.930;8.660;2024-01-15T13:24:15;9.00;;;5.78;;
17340;SDS011;8788;49.930;8.660;2024-01-15T13:26:43;9.73;;;5.65;;
17340;SDS011;8788;49.930;8.660;2024-01-15T13:29:10;10.00;;;6.40;;
17340;SDS011;8788;49.930;8.660;2024-01-15T13:31:37;8.50;;;5.38;;
17340;SDS011;8788;49.930;8.660;2024-01-15T13:34:04;9.15;;;5.85;;
17340;SDS011;8788;49.930;8.660;2024-01-15T13:36:32;8.32;;;6.10;;
17340;SDS011;8788;49.930;8.660;2024-01-15T13:38:59;7.90;;;5.20;;
17340;SDS011;8788;49.930;8.660;2024-01-15T13:41:26;8.15;;;5.93;;
17340;SDS011;8788;49.930;8.660;2024-01-15T13:43:56;9.60;;;5.10;;
17340;SDS011;8788;49.930;8.660;2024-01-15T13:46:24;9.35;;;5.25;;
17340;SDS011;8788;49.930;8.660;2024-01-15T13:48:52;9.85;;;6.03;;
17340;SDS011;8788;49.930;8.660;2024-01-15T13:51:21;8.80;;;5.18;;
17340;SDS011;8788;49.930;8.660;2024-01-15T13:53:49;10.93;;;5.97;;
17340;SDS011;8788;49.930;8.660;2024-01-15T13:56:16;8.52;;;5.35;;
17340;SDS011;8788;49.930;8.660;2024-01-15T13:58:43;7.50;;;5.55;;
17340;SDS011;8788;49.930;8.660;2024-01-15T14:01:12;10.45;;;5.28;;
17340;SDS011;8788;49.930;8.660;2024-01-15T14:03:39;6.50;;;4.85;;
17340;SDS011;8788;49.930;8.660;2024-01-15T14:06:06;9.43;;;5.35;;
17340;SDS011;8788;49.930;8.660;2024-01-15T14:08:36;8.63;;;5.13;;
17340;SDS011;8788;49.930;8.660;2024-01-15T14:11:03;8.00;;;4.82;;
17340;SDS011;8788;49.930;8.660;2024-01-15T14:13:32;8.40;;;5.13;;
17340;SDS011;8788;49.930;8.660;2024-01-15T14:15:59;8.68;;;5.53;;
17340;SDS011;8788;49.930;8.660;2024-01-15T14:18:27;6.25;;;4.05;;
17340;SDS011;8788;49.930;8.660;2024-01-15T14:20:54;8.52;;;5.30;;
17340;SDS011;8788;49.930;8.660;2024-01-15T14:23:21;8.32;;;4.47;;
17340;SDS011;8788;49.930;8.660;2024-01-15T14:25:48;9.80;;;4.50;;
17340;SDS011;8788;49.930;8.660;2024-01-15T14:28:15;6.75;;;4.63;;
17340;SDS011;8788;49.930;8.660;2024-01-15T14:30:43;7.78;;;4.53;;
17340;SDS011;8788;49.930;8.660;2024-01-15T14:33:10;5.78;;;4.40;;
17340;SDS011;8788;49.930;8.660;2024-01-15T14:35:38;7.88;;;4.60;;
17340;SDS011;8788;49.930;8.660;2024-01-15T14:38:05;8.27;;;5.07;;
17340;SDS011;8788;49.930;8.660;2024-01-15T14:40:33;8.07;;;5.05;;
17340;SDS011;8788;49.930;8.660;2024-01-15T14:43:01;9.63;;;5.82;;
17340;SDS011;8788;49.930;8.660;2024-01-15T14:45:29;9.57;;;5.97;;